Time;durP1;ratioP1;P1;durP2;ratioP2;P2;SDS_P1;SDS_P2;PMS_P1;PMS_P2;Temp;Humidity;BMP_temperature;BMP_pressure;BME280_temperature;BME280_humidity;BME280_pressure;Samples;Min_cycle;Max_cycle;Signal;HPM_P1;HPM_P2
2023/12/12 00:01:22;;;;;;;7.35;4.00;;;3.90;99.90;;;;;;4895085;29;20079;-77
2023/12/12 00:03:48;;;;;;;7.60;4.72;;;3.80;99.90;;;;;;4894128;29;20107;-77
2023/12/12 00:06:14;;;;;;;7.13;4.47;;;3.70;99.90;;;;;;4896339;29;20055;-77
2023/12/12 00:08:39;;;;;;;7.25;4.00;;;3.50;99.90;;;;;;4895386;29;20040;-77
2023/12/12 00:11:06;;;;;;;7.65;3.85;;;3.30;99.90;;;;;;4894573;29;20370;-77
2023/12/12 00:13:31;;;;;;;7.28;3.78;;;3.20;99.90;;;;;;4896508;29;20047;-78
2023/12/12 00:15:57;;;;;;;6.35;3.53;;;3.30;99.90;;;;;;4898195;29;20036;-77
2023/12/12 00:18:23;;;;;;;6.18;3.45;;;3.40;99.90;;;;;;4899930;29;20048;-76
2023/12/12 00:20:49;;;;;;;5.95;3.97;;;3.20;99.90;;;;;;4900771;29;20047;-77
2023/12/12 00:23:15;;;;;;;6.38;3.63;;;3.30;99.90;;;;;;4900774;29;20035;-77
2023/12/12 00:25:41;;;;;;;6.38;3.20;;;3.60;99.90;;;;;;4899522;29;20095;-76
2023/12/12 00:28:07;;;;;;;7.03;3.38;;;3.60;99.90;;;;;;4900232;29;20402;-77
2023/12/12 00:30:33;;;;;;;9.23;4.40;;;3.70;99.90;;;;;;4899546;29;20056;-77
2023/12/12 00:32:58;;;;;;;8.38;4.20;;;3.80;99.90;;;;;;4899023;29;20059;-77
2023/12/12 00:35:24;;;;;;;6.70;3.28;;;3.90;99.90;;;;;;4900024;29;20131;-76
2023/12/12 00:37:50;;;;;;;7.65;3.80;;;3.80;99.90;;;;;;4899158;29;20032;-77
2023/12/12 00:40:15;;;;;;;5.25;2.95;;;3.50;99.90;;;;;;4897491;29;20470;-77
2023/12/12 00:42:41;;;;;;;8.18;4.05;;;3.40;99.90;;;;;;4882382;29;20040;-76
2023/12/12 00:45:07;;;;;;;5.70;2.95;;;3.40;99.90;;;;;;4899684;29;20850;-76
2023/12/12 00:47:33;;;;;;;8.55;4.03;;;3.40;99.90;;;;;;4898486;29;20059;-77
2023/12/12 00:49:59;;;;;;;9.57;3.65;;;3.70;99.90;;;;;;4899693;29;20399;-78
2023/12/12 00:52:25;;;;;;;7.20;3.88;;;3.90;99.90;;;;;;4900739;29;20051;-77
2023/12/12 00:54:51;;;;;;;9.23;3.55;;;4.10;99.90;;;;;;4896810;29;20103;-77
2023/12/12 00:57:17;;;;;;;7.07;3.08;;;3.90;99.90;;;;;;4899488;29;20122;-77
2023/12/12 00:59:42;;;;;;;6.93;3.72;;;3.90;99.90;;;;;;4899268;29;20051;-77
2023/12/12 01:02:08;;;;;;;8.50;3.95;;;3.90;99.90;;;;;;4898135;29;20025;-77
2023/12/12 01:04:34;;;;;;;7.60;3.00;;;3.90;99.90;;;;;;4898117;29;20037;-78
2023/12/12 01:07:01;;;;;;;6.32;3.40;;;3.80;99.90;;;;;;4899268;29;20024;-77
2023/12/12 01:09:28;;;;;;;6.55;3.35;;;3.60;99.90;;;;;;4898153;29;20039;-77
2023/12/12 01:11:54;;;;;;;7.43;3.58;;;3.50;99.90;;;;;;4897556;29;20520;-77
2023/12/12 01:14:20;;;;;;;6.72;3.28;;;3.50;99.90;;;;;;4898650;29;20032;-77
2023/12/12 01:16:46;;;;;;;6.78;3.90;;;3.70;99.90;;;;;;4899355;29;20039;-77
2023/12/12 01:19:11;;;;;;;6.25;3.17;;;3.80;99.90;;;;;;4900602;29;20577;-77
2023/12/12 01:21:37;;;;;;;6.72;3.13;;;3.70;99.90;;;;;;4898041;29;20099;-76
2023/12/12 01:24:03;;;;;;;6.45;3.03;;;3.70;99.90;;;;;;4899997;29;20050;-77
2023/12/12 01:26:29;;;;;;;5.57;3.58;;;3.60;99.90;;;;;;4898996;29;20040;-77
2023/12/12 01:28:54;;;;;;;4.90;2.78;;;3.40;99.90;;;;;;4898894;29;20495;-77
2023/12/12 01:31:20;;;;;;;4.72;2.75;;;3.70;99.90;;;;;;4900284;29;20048;-76
2023/12/12 01:33:47;;;;;;;8.27;3.08;;;3.50;99.90;;;;;;4898037;29;20597;-77
2023/12/12 01:36:13;;;;;;;5.18;3.13;;;3.50;99.90;;;;;;4897045;29;20040;-78
2023/12/12 01:38:39;;;;;;;8.43;3.97;;;3.70;99.90;;;;;;4898103;29;20466;-76
2023/12/12 01:41:05;;;;;;;4.55;2.60;;;3.70;99.90;;;;;;4899859;29;20047;-77
2023/12/12 01:43:32;;;;;;;5.97;3.40;;;3.70;99.90;;;;;;4897792;29;20036;-77
2023/12/12 01:46:00;;;;;;;6.75;3.20;;;3.60;99.90;;;;;;4897352;29;20048;-77
2023/12/12 01:48:27;;;;;;;7.47;3.38;;;3.50;99.90;;;;;;4897745;29;20055;-77
2023/12/12 01:50:53;;;;;;;8.50;4.25;;;3.40;99.90;;;;;;4897878;29;20060;-77
2023/12/12 01:53:23;;;;;;;6.88;3.70;;;3.30;99.90;;;;;;4899287;29;20063;-77
2023/12/12 01:55:51;;;;;;;7.70;3.63;;;3.30;99.90;;;;;;4898220;29;20395;-77
2023/12/12 01:58:18;;;;;;;6.47;3.58;;;3.20;99.90;;;;;;4896286;29;20187;-77
2023/12/12 02:00:44;;;;;;;6.00;2.95;;;3.10;99.90;;;;;;4898707;29;20036;-77
2023/12/12 02:03:11;;;;;;;5.05;2.67;;;3.00;99.90;;;;;;4896708;29;20047;-77
2023/12/12 02:05:39;;;;;;;6.97;3.17;;;2.80;99.90;;;;;;4896126;29;20074;-77
2023/12/12 02:08:05;;;;;;;6.97;2.58;;;2.70;99.90;;;;;;4896497;29;20105;-78
2023/12/12 02:10:31;;;;;;;5.13;2.35;;;2.60;99.90;;;;;;4897139;29;20082;-78
2023/12/12 02:12:57;;;;;;;6.13;2.65;;;2.50;99.90;;;;;;4896402;29;20028;-77
2023/12/12 02:15:23;;;;;;;6.63;3.13;;;2.60;99.90;;;;;;4896071;29;20132;-78
2023/12/12 02:17:49;;;;;;;5.88;2.50;;;2.80;99.90;;;;;;4899129;29;20051;-77
2023/12/12 02:20:15;;;;;;;5.03;2.42;;;3.00;99.90;;;;;;4898123;29;20443;-77
2023/12/12 02:22:42;;;;;;;5.40;2.75;;;2.90;99.90;;;;;;4897868;29;20043;-77
2023/12/12 02:25:08;;;;;;;6.60;3.13;;;3.00;99.90;;;;;;4897478;29;20545;-78
2023/12/12 02:27:35;;;;;;;5.72;3.00;;;3.30;99.90;;;;;;4896991;29;20151;-77
2023/12/12 02:30:01;;;;;;;6.30;2.80;;;3.30;99.90;;;;;;4897897;29;20070;-78
2023/12/12 02:32:29;;;;;;;4.15;2.70;;;3.30;99.90;;;;;;4898203;29;20095;-77
2023/12/12 02:34:54;;;;;;;5.28;3.15;;;3.10;99.90;;;;;;4897231;29;20039;-77
2023/12/12 02:37:21;;;;;;;5.97;3.00;;;2.90;99.90;;;;;;4896825;29;20044;-77
2023/12/12 02:39:46;;;;;;;7.80;3.10;;;2.70;99.90;;;;;;4897802;29;20060;-78
2023/12/12 02:42:12;;;;;;;6.35;3.20;;;2.70;99.90;;;;;;4897287;29;20455;-78
2023/12/12 02:44:38;;;;;;;5.70;3.45;;;2.90;99.90;;;;;;4898144;29;20043;-77
2023/12/12 02:47:03;;;;;;;6.15;3.45;;;3.00;99.90;;;;;;4897729;29;20127;-77
2023/12/12 02:49:29;;;;;;;5.13;2.33;;;3.00;99.90;;;;;;4894958;29;20036;-77
2023/12/12 02:51:55;;;;;;;5.18;2.42;;;2.90;99.90;;;;;;4896093;29;20760;-77
2023/12/12 02:54:20;;;;;;;6.07;2.55;;;2.80;99.90;;;;;;4896539;29;20040;-77
2023/12/12 02:56:46;;;;;;;4.82;2.13;;;2.80;99.90;;;;;;4897762;29;20546;-77
2023/12/12 02:59:12;;;;;;;4.18;2.30;;;2.80;99.90;;;;;;4895305;29;20684;-77
2023/12/12 03:01:37;;;;;;;4.63;2.22;;;2.80;99.90;;;;;;4895014;29;20717;-77
2023/12/12 03:04:03;;;;;;;4.80;2.08;;;2.90;99.90;;;;;;4896412;29;20036;-77
2023/12/12 03:06:29;;;;;;;5.50;2.50;;;3.00;99.90;;;;;;4895506;29;20140;-77
2023/12/12 03:08:54;;;;;;;5.22;2.58;;;3.00;99.90;;;;;;4897594;29;20036;-77
2023/12/12 03:11:20;;;;;;;8.45;3.00;;;3.00;99.90;;;;;;4895185;29;20048;-77
2023/12/12 03:13:46;;;;;;;5.05;3.03;;;3.10;99.90;;;;;;4893888;29;20133;-77
2023/12/12 03:16:11;;;;;;;4.35;2.13;;;3.10;99.90;;;;;;4897482;29;20036;-77
2023/12/12 03:18:37;;;;;;;4.63;2.33;;;3.00;99.90;;;;;;4896639;29;20060;-77
2023/12/12 03:21:03;;;;;;;4.50;2.22;;;3.10;99.90;;;;;;4896630;29;20032;-77
2023/12/12 03:23:28;;;;;;;6.13;2.55;;;3.00;99.90;;;;;;4897506;29;20048;-77
2023/12/12 03:25:54;;;;;;;5.32;2.60;;;2.90;99.90;;;;;;4896486;29;20606;-77
2023/12/12 03:28:20;;;;;;;7.65;2.90;;;3.10;99.90;;;;;;4898085;29;20076;-78
2023/12/12 03:30:46;;;;;;;3.90;2.28;;;3.10;99.90;;;;;;4897904;29;20036;-77
2023/12/12 03:33:11;;;;;;;5.22;2.22;;;2.90;99.90;;;;;;4896557;29;20040;-77
2023/12/12 03:35:37;;;;;;;5.25;2.38;;;3.10;99.90;;;;;;4897308;29;20032;-78
2023/12/12 03:38:03;;;;;;;5.75;2.60;;;3.10;99.90;;;;;;4897497;29;20142;-77
2023/12/12 03:40:28;;;;;;;6.20;2.63;;;3.10;99.90;;;;;;4896946;29;20044;-76
2023/12/12 03:42:54;;;;;;;4.63;2.15;;;3.10;99.90;;;;;;4896619;29;20096;-77
2023/12/12 03:45:19;;;;;;;7.10;2.72;;;3.10;99.90;;;;;;4898786;29;20047;-77
2023/12/12 03:47:45;;;;;;;5.90;3.60;;;3.50;99.90;;;;;;4900149;29;20036;-77
2023/12/12 03:50:11;;;;;;;9.38;4.38;;;3.00;99.90;;;;;;4898504;29;20175;-78
2023/12/12 03:52:38;;;;;;;7.32;3.50;;;2.70;99.90;;;;;;4901007;29;20196;-77
2023/12/12 03:55:07;;;;;;;7.22;2.70;;;2.80;99.90;;;;;;4900325;29;20040;-77
2023/12/12 03:57:32;;;;;;;7.70;3.30;;;2.90;99.90;;;;;;4900179;29;20047;-78
2023/12/12 03:59:58;;;;;;;7.00;3.50;;;2.80;99.90;;;;;;4901501;29;20064;-77
2023/12/12 04:02:23;;;;;;;7.00;3.35;;;2.60;99.90;;;;;;4896848;29;20107;-77
2023/12/12 04:04:49;;;;;;;6.15;3.08;;;2.70;99.90;;;;;;4893119;29;20032;-76
2023/12/12 04:07:17;;;;;;;5.18;2.35;;;2.60;99.90;;;;;;4894475;29;20032;-77
2023/12/12 04:09:42;;;;;;;4.93;2.53;;;2.70;99.90;;;;;;4893801;29;20043;-77
2023/12/12 04:12:08;;;;;;;6.80;2.95;;;3.00;99.90;;;;;;4893086;29;20047;-78
2023/12/12 04:14:34;;;;;;;6.00;3.92;;;2.60;99.90;;;;;;4894411;29;20042;-78
2023/12/12 04:16:59;;;;;;;8.13;3.35;;;2.30;99.90;;;;;;4894997;29;20613;-78
2023/12/12 04:19:25;;;;;;;6.78;3.60;;;2.30;99.90;;;;;;4890440;29;20811;-77
2023/12/12 04:21:51;;;;;;;5.10;2.60;;;2.40;99.90;;;;;;4893180;29;21725;-77
2023/12/12 04:24:17;;;;;;;4.95;2.22;;;2.20;99.90;;;;;;4895293;29;20080;-79
2023/12/12 04:26:43;;;;;;;4.38;2.25;;;2.20;99.90;;;;;;4895465;29;20451;-77
2023/12/12 04:29:09;;;;;;;5.53;2.78;;;2.40;99.90;;;;;;4893166;29;20032;-77
2023/12/12 04:31:35;;;;;;;5.40;3.00;;;2.40;99.90;;;;;;4896529;29;20044;-77
2023/12/12 04:34:01;;;;;;;5.90;2.55;;;2.30;99.90;;;;;;4894260;29;20046;-77
2023/12/12 04:36:27;;;;;;;5.07;2.35;;;2.20;99.90;;;;;;4898058;29;20443;-77
2023/12/12 04:38:53;;;;;;;7.38;3.03;;;2.10;99.90;;;;;;4894042;29;20044;-77
2023/12/12 04:41:18;;;;;;;4.40;2.42;;;2.30;99.90;;;;;;4894350;29;20091;-77
2023/12/12 04:43:44;;;;;;;5.70;2.47;;;2.40;99.90;;;;;;4895453;29;20040;-77
2023/12/12 04:46:18;;;;;;;5.05;2.60;;;2.20;99.90;;;;;;4894867;29;20033;-78
2023/12/12 04:48:43;;;;;;;5.30;2.22;;;2.00;99.90;;;;;;4891291;29;20449;-77
2023/12/12 04:51:09;;;;;;;4.75;1.70;;;1.90;99.90;;;;;;4893191;29;20062;-77
2023/12/12 04:53:34;;;;;;;4.82;2.45;;;2.40;99.90;;;;;;4894753;29;20051;-76
2023/12/12 04:56:00;;;;;;;4.90;2.72;;;2.50;99.90;;;;;;4894336;29;20653;-77
2023/12/12 04:58:26;;;;;;;4.35;1.95;;;2.50;99.90;;;;;;4895302;29;20072;-77
2023/12/12 05:00:51;;;;;;;4.50;2.47;;;2.70;99.90;;;;;;4890935;29;26362;-77
2023/12/12 05:03:17;;;;;;;5.38;2.33;;;2.90;99.90;;;;;;4889357;29;20103;-77
2023/12/12 05:05:44;;;;;;;7.63;3.33;;;2.80;99.90;;;;;;4893267;29;20038;-78
2023/12/12 05:08:11;;;;;;;5.85;3.30;;;2.60;99.90;;;;;;4891899;29;20090;-78
2023/12/12 05:10:37;;;;;;;7.97;5.47;;;2.50;99.90;;;;;;4890439;29;20047;-77
2023/12/12 05:13:02;;;;;;;7.82;4.30;;;2.40;99.90;;;;;;4889401;29;20204;-77
2023/12/12 05:15:28;;;;;;;8.13;3.75;;;2.30;99.90;;;;;;4893184;29;20032;-77
2023/12/12 05:17:54;;;;;;;8.55;4.43;;;2.20;99.90;;;;;;4891522;29;20043;-77
2023/12/12 05:20:20;;;;;;;7.00;4.00;;;2.10;99.90;;;;;;4890799;29;20036;-76
2023/12/12 05:22:45;;;;;;;6.60;3.90;;;2.10;99.90;;;;;;4893855;29;20768;-77
2023/12/12 05:25:11;;;;;;;9.02;3.17;;;2.00;99.90;;;;;;4891385;29;20726;-77
2023/12/12 05:27:37;;;;;;;7.50;3.47;;;1.90;99.90;;;;;;4893187;29;20471;-77
2023/12/12 05:30:03;;;;;;;6.47;3.00;;;1.90;99.90;;;;;;4892690;29;20042;-77
2023/12/12 05:32:29;;;;;;;5.13;2.70;;;2.00;99.90;;;;;;4890769;29;20471;-78
2023/12/12 05:34:55;;;;;;;4.35;2.20;;;2.10;99.90;;;;;;4893085;29;20034;-78
2023/12/12 05:37:21;;;;;;;5.03;2.78;;;2.10;99.90;;;;;;4873626;29;20115;-77
2023/12/12 05:39:47;;;;;;;6.60;3.83;;;2.20;99.90;;;;;;4891734;29;20853;-77
2023/12/12 05:42:13;;;;;;;4.57;2.72;;;2.20;99.90;;;;;;4891065;29;20036;-78
2023/12/12 05:44:38;;;;;;;4.65;2.58;;;2.30;99.90;;;;;;4892518;29;21336;-78
2023/12/12 05:47:04;;;;;;;6.20;2.72;;;2.50;99.90;;;;;;4890587;29;20063;-78
2023/12/12 05:49:30;;;;;;;5.05;2.42;;;2.80;99.90;;;;;;4892006;29;20054;-77
2023/12/12 05:51:56;;;;;;;5.88;2.90;;;2.90;99.90;;;;;;4892337;29;21439;-78
2023/12/12 05:54:21;;;;;;;5.68;2.28;;;2.80;99.90;;;;;;4890744;29;20478;-77
2023/12/12 05:56:47;;;;;;;6.75;2.95;;;2.80;99.90;;;;;;4890998;29;20028;-77
2023/12/12 05:59:14;;;;;;;9.05;3.05;;;2.70;99.90;;;;;;4889910;29;20068;-78
2023/12/12 06:01:41;;;;;;;5.05;3.08;;;2.60;99.90;;;;;;4890519;29;20067;-77
2023/12/12 06:04:11;;;;;;;6.07;3.58;;;2.50;99.90;;;;;;4890374;29;20035;-77
2023/12/12 06:06:41;;;;;;;6.25;2.92;;;2.50;99.90;;;;;;4891001;29;20024;-77
2023/12/12 06:09:09;;;;;;;6.10;2.85;;;2.40;99.90;;;;;;4891763;29;20040;-77
2023/12/12 06:11:35;;;;;;;5.85;2.95;;;2.40;99.90;;;;;;4889825;29;20041;-78
2023/12/12 06:14:03;;;;;;;5.00;2.80;;;2.40;99.90;;;;;;4897151;29;20128;-76
2023/12/12 06:16:29;;;;;;;5.22;2.97;;;2.40;99.90;;;;;;4892375;29;20034;-76
2023/12/12 06:18:55;;;;;;;10.25;3.53;;;2.40;99.90;;;;;;4890556;29;20063;-76
2023/12/12 06:21:21;;;;;;;4.32;2.33;;;2.30;99.90;;;;;;4889742;29;20032;-74
2023/12/12 06:23:47;;;;;;;4.38;2.65;;;2.30;99.90;;;;;;4888633;29;20042;-75
2023/12/12 06:26:14;;;;;;;4.97;2.30;;;2.50;99.90;;;;;;4890861;29;20062;-75
2023/12/12 06:28:40;;;;;;;4.80;2.13;;;2.60;99.90;;;;;;4890422;29;20095;-75
2023/12/12 06:31:07;;;;;;;5.28;2.38;;;2.60;99.90;;;;;;4892566;29;20084;-75
2023/12/12 06:33:33;;;;;;;4.13;2.20;;;2.70;99.90;;;;;;4891765;29;20515;-75
2023/12/12 06:35:59;;;;;;;5.55;2.67;;;2.80;99.90;;;;;;4890631;29;21512;-77
2023/12/12 06:38:25;;;;;;;5.53;2.78;;;2.80;99.90;;;;;;4892380;29;20032;-75
2023/12/12 06:40:51;;;;;;;6.35;3.83;;;2.90;99.90;;;;;;4896853;29;20024;-72
2023/12/12 06:43:17;;;;;;;6.03;3.08;;;2.80;99.90;;;;;;4892609;29;20039;-74
2023/12/12 06:45:43;;;;;;;7.60;3.67;;;2.80;99.90;;;;;;4890490;29;20040;-75
2023/12/12 06:48:08;;;;;;;7.00;3.63;;;2.80;99.90;;;;;;4891936;29;21373;-76
2023/12/12 06:50:34;;;;;;;7.78;5.15;;;2.70;99.90;;;;;;4891895;29;20040;-76
2023/12/12 06:52:59;;;;;;;7.93;3.80;;;2.70;99.90;;;;;;4892488;29;20056;-76
2023/12/12 06:55:25;;;;;;;6.72;3.72;;;2.60;99.90;;;;;;4891326;29;20043;-75
2023/12/12 06:57:51;;;;;;;6.13;3.97;;;2.50;99.90;;;;;;4891045;29;20040;-76
2023/12/12 07:00:17;;;;;;;7.35;3.80;;;2.40;99.90;;;;;;4892256;29;20032;-76
2023/12/12 07:02:43;;;;;;;7.43;4.22;;;2.40;99.90;;;;;;4888772;29;20110;-77
2023/12/12 07:05:08;;;;;;;6.57;3.95;;;2.40;99.90;;;;;;4891121;29;20363;-75
2023/12/12 07:07:34;;;;;;;6.15;3.33;;;2.40;99.90;;;;;;4891943;29;20055;-76
2023/12/12 07:10:02;;;;;;;6.25;3.40;;;2.30;99.90;;;;;;4891045;29;20032;-76
2023/12/12 07:12:28;;;;;;;8.20;3.97;;;2.30;99.90;;;;;;4890669;29;20573;-76
2023/12/12 07:14:54;;;;;;;6.32;3.25;;;2.30;99.90;;;;;;4892354;29;20054;-77
2023/12/12 07:17:20;;;;;;;6.28;3.40;;;2.30;99.90;;;;;;4891447;29;20123;-76
2023/12/12 07:19:46;;;;;;;4.60;2.45;;;2.30;99.90;;;;;;4891181;29;20069;-77
2023/12/12 07:22:11;;;;;;;5.40;2.38;;;2.20;99.90;;;;;;4895703;29;20111;-76
2023/12/12 07:24:40;;;;;;;5.15;2.60;;;2.30;99.90;;;;;;4894751;29;20048;-76
2023/12/12 07:27:06;;;;;;;5.70;2.40;;;2.40;99.90;;;;;;4894879;29;20039;-76
2023/12/12 07:29:31;;;;;;;5.10;2.55;;;2.50;99.90;;;;;;4895833;29;20062;-76
2023/12/12 07:31:57;;;;;;;4.70;2.97;;;2.50;99.90;;;;;;4894498;29;20056;-77
2023/12/12 07:34:23;;;;;;;5.97;2.17;;;2.60;99.90;;;;;;4893959;29;20044;-74
2023/12/12 07:36:49;;;;;;;4.30;2.33;;;2.70;99.90;;;;;;4895959;29;20032;-75
2023/12/12 07:39:15;;;;;;;3.65;2.20;;;2.70;99.90;;;;;;4893162;29;20029;-75
2023/12/12 07:41:41;;;;;;;6.32;2.60;;;2.70;99.90;;;;;;4894109;29;20471;-76
2023/12/12 07:44:07;;;;;;;6.95;3.53;;;2.60;99.90;;;;;;4895434;29;20044;-75
2023/12/12 07:46:39;;;;;;;6.93;3.33;;;2.60;99.90;;;;;;4894523;29;20036;-76
2023/12/12 07:49:08;;;;;;;6.57;3.53;;;2.70;99.90;;;;;;4893880;29;20071;-75
2023/12/12 07:51:33;;;;;;;6.78;3.55;;;2.90;99.90;;;;;;4895098;29;20102;-75
2023/12/12 07:54:01;;;;;;;6.68;3.80;;;3.00;99.90;;;;;;4893882;29;20547;-76
2023/12/12 07:56:27;;;;;;;5.53;3.35;;;3.10;99.90;;;;;;4893085;29;20035;-76
2023/12/12 07:58:53;;;;;;;6.50;3.70;;;3.10;99.90;;;;;;4895305;29;20111;-76
2023/12/12 08:01:18;;;;;;;6.43;3.40;;;2.90;99.90;;;;;;4893226;29;20032;-75
2023/12/12 08:03:44;;;;;;;5.03;2.97;;;2.60;99.90;;;;;;4893728;29;20100;-75
2023/12/12 08:06:10;;;;;;;8.00;3.97;;;2.70;99.90;;;;;;4894688;29;20047;-75
2023/12/12 08:08:36;;;;;;;7.82;3.90;;;2.70;99.90;;;;;;4893477;29;20072;-75
2023/12/12 08:11:02;;;;;;;7.47;3.60;;;2.90;99.90;;;;;;4894078;29;20765;-75
2023/12/12 08:13:28;;;;;;;6.22;3.83;;;2.90;99.90;;;;;;4878205;29;20036;-74
2023/12/12 08:15:53;;;;;;;6.18;3.47;;;2.90;99.90;;;;;;4894345;29;20046;-75
2023/12/12 08:18:19;;;;;;;5.57;3.25;;;3.00;99.90;;;;;;4893206;29;20572;-73
2023/12/12 08:20:45;;;;;;;8.07;3.25;;;3.00;99.90;;;;;;4895288;29;20040;-73
2023/12/12 08:23:11;;;;;;;9.77;3.85;;;4.20;99.90;;;;;;4894208;29;20600;-74
2023/12/12 08:25:36;;;;;;;6.45;2.90;;;5.50;99.90;;;;;;4892150;29;20035;-74
2023/12/12 08:28:03;;;;;;;5.95;2.67;;;4.50;99.90;;;;;;4895266;29;20127;-75
2023/12/12 08:30:28;;;;;;;6.68;3.10;;;3.80;99.90;;;;;;4894073;29;20419;-75
2023/12/12 08:32:54;;;;;;;6.22;3.03;;;3.40;99.90;;;;;;4892384;29;20036;-76
2023/12/12 08:35:20;;;;;;;5.38;3.13;;;3.30;99.90;;;;;;4894634;29;20199;-74
2023/12/12 08:37:45;;;;;;;7.88;3.40;;;3.20;99.90;;;;;;4893998;29;20625;-74
2023/12/12 08:40:11;;;;;;;5.78;2.70;;;3.20;99.90;;;;;;4892905;29;20039;-76
2023/12/12 08:42:39;;;;;;;6.68;2.67;;;3.10;99.90;;;;;;4895365;29;20038;-74
2023/12/12 08:45:05;;;;;;;5.85;3.00;;;3.20;99.90;;;;;;4893585;29;20410;-75
2023/12/12 08:47:31;;;;;;;7.20;3.13;;;3.10;99.90;;;;;;4892312;29;20037;-73
2023/12/12 08:49:59;;;;;;;6.43;3.22;;;3.30;99.90;;;;;;4893496;29;20533;-74
2023/12/12 08:52:26;;;;;;;9.70;4.45;;;3.30;99.90;;;;;;4894301;29;20068;-75
2023/12/12 08:54:52;;;;;;;9.45;4.72;;;3.30;99.90;;;;;;4893025;29;20040;-75
2023/12/12 08:57:18;;;;;;;6.88;3.83;;;3.40;99.90;;;;;;4893602;29;20091;-73
2023/12/12 08:59:44;;;;;;;7.85;4.55;;;3.50;99.90;;;;;;4876573;29;20557;-74
2023/12/12 09:02:10;;;;;;;6.38;3.58;;;3.50;99.90;;;;;;4892644;29;20110;-73
2023/12/12 09:04:37;;;;;;;6.55;3.97;;;3.70;99.90;;;;;;4891693;29;20039;-75
2023/12/12 09:07:02;;;;;;;6.60;3.63;;;3.80;99.90;;;;;;4893900;29;20047;-73
2023/12/12 09:09:31;;;;;;;7.57;4.28;;;3.60;99.90;;;;;;4892694;29;20501;-75
2023/12/12 09:11:57;;;;;;;7.45;4.00;;;3.50;99.90;;;;;;4892431;29;20067;-74
2023/12/12 09:14:23;;;;;;;9.02;4.43;;;3.50;99.90;;;;;;4893668;29;20028;-74
2023/12/12 09:16:49;;;;;;;9.23;5.60;;;3.50;99.90;;;;;;4892140;29;20039;-76
2023/12/12 09:19:16;;;;;;;10.13;5.28;;;3.30;99.90;;;;;;4892254;29;20051;-75
2023/12/12 09:21:42;;;;;;;7.93;5.25;;;3.50;99.90;;;;;;4893800;29;20095;-74
2023/12/12 09:24:08;;;;;;;6.82;4.40;;;3.60;99.90;;;;;;4892923;29;20105;-76
2023/12/12 09:26:33;;;;;;;8.52;4.53;;;3.70;99.90;;;;;;4875476;29;20047;-74
2023/12/12 09:28:59;;;;;;;9.07;4.50;;;3.80;99.90;;;;;;4893576;29;20040;-74
2023/12/12 09:31:26;;;;;;;8.65;4.47;;;3.90;99.90;;;;;;4876182;29;20523;-74
2023/12/12 09:33:52;;;;;;;8.18;4.65;;;4.00;99.90;;;;;;4892395;29;20130;-75
2023/12/12 09:36:18;;;;;;;8.80;5.60;;;4.40;99.90;;;;;;4892971;29;20048;-75
2023/12/12 09:38:44;;;;;;;10.07;5.82;;;4.10;99.90;;;;;;4874545;29;20062;-76
2023/12/12 09:41:22;;;;;;;8.30;5.43;;;4.00;99.90;;;;;;4892122;29;20083;-75
2023/12/12 09:43:48;;;;;;;8.23;5.10;;;4.10;99.90;;;;;;4891902;29;20040;-75
2023/12/12 09:46:16;;;;;;;6.25;4.32;;;4.30;99.90;;;;;;4893129;29;20047;-75
2023/12/12 09:48:47;;;;;;;8.35;5.68;;;4.50;99.90;;;;;;4890560;29;20050;-76
2023/12/12 09:51:16;;;;;;;7.97;4.97;;;4.60;99.90;;;;;;4891901;29;20047;-75
2023/12/12 09:53:46;;;;;;;7.47;4.55;;;4.70;99.90;;;;;;4891988;29;20095;-75
2023/12/12 09:56:15;;;;;;;7.65;4.50;;;4.70;99.90;;;;;;4893138;29;20059;-75
2023/12/12 09:58:44;;;;;;;8.38;4.63;;;4.70;99.90;;;;;;4891956;29;20092;-74
2023/12/12 10:01:10;;;;;;;8.32;4.50;;;4.60;99.90;;;;;;4891550;29;20040;-74
2023/12/12 10:03:38;;;;;;;11.73;5.50;;;4.70;99.90;;;;;;4892066;29;20036;-74
2023/12/12 10:06:08;;;;;;;9.55;5.35;;;4.70;99.90;;;;;;4875280;29;20502;-75
2023/12/12 10:08:35;;;;;;;8.60;5.70;;;4.60;99.90;;;;;;4891200;29;20638;-76
2023/12/12 10:11:02;;;;;;;11.10;5.57;;;4.70;99.90;;;;;;4892947;29;20095;-76
2023/12/12 10:13:28;;;;;;;9.38;5.15;;;4.50;99.90;;;;;;4892773;29;20063;-75
2023/12/12 10:15:54;;;;;;;8.90;5.15;;;4.40;99.90;;;;;;4891305;29;20522;-75
2023/12/12 10:18:22;;;;;;;10.88;5.25;;;4.40;99.90;;;;;;4891665;29;20184;-75
2023/12/12 10:20:48;;;;;;;10.75;5.45;;;4.40;99.90;;;;;;4892774;29;20055;-75
2023/12/12 10:23:13;;;;;;;12.55;6.43;;;4.40;99.90;;;;;;4891284;29;20495;-75
2023/12/12 10:25:49;;;;;;;9.00;5.43;;;4.40;99.90;;;;;;4891002;29;20040;-75
2023/12/12 10:28:15;;;;;;;9.77;5.15;;;4.50;99.90;;;;;;4892563;29;20036;-75
2023/12/12 10:30:42;;;;;;;9.80;5.25;;;4.70;99.90;;;;;;4891183;29;20044;-75
2023/12/12 10:33:14;;;;;;;8.95;4.97;;;4.80;99.90;;;;;;4891198;29;20130;-75
2023/12/12 10:35:45;;;;;;;7.45;4.03;;;4.90;99.90;;;;;;4891728;29;20040;-75
2023/12/12 10:38:10;;;;;;;8.43;4.25;;;4.80;99.90;;;;;;4892856;29;20032;-76
2023/12/12 10:40:37;;;;;;;7.40;3.83;;;4.90;99.90;;;;;;4891015;29;20554;-75
2023/12/12 10:43:05;;;;;;;7.30;4.13;;;5.10;99.90;;;;;;4892425;29;20044;-77
2023/12/12 10:45:32;;;;;;;7.05;4.00;;;5.20;99.90;;;;;;4892523;29;20044;-75
2023/12/12 10:48:01;;;;;;;7.53;4.65;;;5.40;99.90;;;;;;4873737;29;20775;-75
2023/12/12 10:50:31;;;;;;;8.02;4.85;;;5.60;99.90;;;;;;4890025;29;20411;-75
2023/12/12 10:52:57;;;;;;;8.63;4.82;;;5.80;99.90;;;;;;4892239;29;20055;-75
2023/12/12 10:55:24;;;;;;;9.40;4.45;;;5.80;99.90;;;;;;4890320;29;20508;-75
2023/12/12 10:57:52;;;;;;;7.45;4.25;;;5.90;99.90;;;;;;4891533;29;20047;-76
2023/12/12 11:00:20;;;;;;;8.25;4.38;;;6.00;99.90;;;;;;4892017;29;20111;-77
2023/12/12 11:02:47;;;;;;;6.47;3.83;;;6.10;99.90;;;;;;4890798;29;20124;-75
2023/12/12 11:05:14;;;;;;;8.30;4.70;;;6.10;99.90;;;;;;4892723;29;20099;-76
2023/12/12 11:07:42;;;;;;;12.27;7.15;;;6.00;99.90;;;;;;4896600;29;20036;-75
2023/12/12 11:10:13;;;;;;;11.40;6.78;;;5.90;99.90;;;;;;4896418;29;20123;-75
2023/12/12 11:12:55;;;;;;;11.43;7.22;;;5.60;99.90;;;;;;4896143;29;20043;-76
2023/12/12 11:15:23;;;;;;;11.70;6.90;;;5.50;99.90;;;;;;4896229;29;20422;-74
2023/12/12 11:17:51;;;;;;;11.45;6.65;;;5.50;99.90;;;;;;4896916;29;20063;-75
2023/12/12 11:20:18;;;;;;;16.67;6.70;;;5.50;99.90;;;;;;4896502;29;20040;-75
2023/12/12 11:22:48;;;;;;;10.30;6.82;;;5.50;99.90;;;;;;4895946;29;20036;-75
2023/12/12 11:25:17;;;;;;;9.02;6.13;;;5.70;99.90;;;;;;4895695;29;20051;-75
2023/12/12 11:27:53;;;;;;;9.45;6.45;;;5.80;99.90;;;;;;4896279;29;20745;-75
2023/12/12 11:30:29;;;;;;;9.63;6.20;;;6.10;99.90;;;;;;4896487;29;20024;-75
2023/12/12 11:32:55;;;;;;;10.13;6.10;;;6.20;99.90;;;;;;4895921;29;20608;-74
2023/12/12 11:35:31;;;;;;;8.32;5.63;;;6.40;99.90;;;;;;4896422;29;20068;-76
2023/12/12 11:38:27;;;;;;;8.05;5.47;;;6.20;99.90;;;;;;4896408;29;20032;-75
2023/12/12 11:41:09;;;;;;;;;;;6.20;99.90;;;;;;4896704;29;20039;-75
2023/12/12 11:43:36;;;;;;;8.80;4.95;;;6.20;99.90;;;;;;4895702;29;19919;-75
2023/12/12 11:46:19;;;;;;;7.45;5.07;;;6.30;99.90;;;;;;4896252;29;20048;-75
2023/12/12 11:48:45;;;;;;;10.15;5.40;;;6.30;99.90;;;;;;4896559;29;20227;-75
2023/12/12 11:51:35;;;;;;;9.55;5.65;;;6.40;99.90;;;;;;4896169;29;20494;-76
2023/12/12 11:54:06;;;;;;;11.35;6.82;;;6.60;99.90;;;;;;4896117;29;20032;-74
2023/12/12 11:56:32;;;;;;;11.80;7.32;;;6.60;99.90;;;;;;4896694;29;20521;-75
2023/12/12 11:59:00;;;;;;;12.13;7.28;;;6.50;99.90;;;;;;4896140;29;20036;-75
2023/12/12 12:01:26;;;;;;;10.30;5.82;;;6.60;99.90;;;;;;4896433;29;20387;-74
2023/12/12 12:03:52;;;;;;;9.45;5.22;;;6.60;99.90;;;;;;4881629;29;20044;-75
2023/12/12 12:06:20;;;;;;;8.57;5.40;;;6.70;99.90;;;;;;4881391;29;20403;-76
2023/12/12 12:08:46;;;;;;;9.45;4.70;;;6.60;99.90;;;;;;4869521;29;20037;-75
2023/12/12 12:11:12;;;;;;;8.50;4.80;;;6.60;99.90;;;;;;4886207;29;20103;-75
2023/12/12 12:13:42;;;;;;;7.63;4.50;;;6.70;99.90;;;;;;4891132;29;20040;-75
2023/12/12 12:16:08;;;;;;;8.05;4.70;;;6.90;99.90;;;;;;4894748;29;20036;-76
2023/12/12 12:18:35;;;;;;;9.38;5.13;;;7.10;99.90;;;;;;4893942;29;20084;-75
2023/12/12 12:21:07;;;;;;;7.05;4.30;;;7.20;99.90;;;;;;4893744;29;20172;-76
2023/12/12 12:23:37;;;;;;;8.48;5.40;;;7.30;99.90;;;;;;4894188;29;20048;-74
2023/12/12 12:26:03;;;;;;;12.38;5.80;;;7.40;99.90;;;;;;4894083;29;20040;-75
2023/12/12 12:28:33;;;;;;;9.32;4.88;;;7.40;99.90;;;;;;4893545;29;20569;-75
2023/12/12 12:30:59;;;;;;;9.90;6.03;;;7.20;99.90;;;;;;4893127;29;20581;-76
2023/12/12 12:33:31;;;;;;;10.07;5.22;;;7.10;99.90;;;;;;4895195;29;20032;-75
2023/12/12 12:35:57;;;;;;;16.80;6.75;;;7.20;99.90;;;;;;4894244;29;20679;-74
2023/12/12 12:38:28;;;;;;;10.60;5.55;;;7.10;99.90;;;;;;4893226;29;20113;-76
2023/12/12 12:40:53;;;;;;;11.98;5.38;;;7.00;99.90;;;;;;4893265;29;20128;-74
2023/12/12 12:43:19;;;;;;;9.07;5.35;;;6.90;99.90;;;;;;4894751;29;20123;-76
2023/12/12 12:45:46;;;;;;;8.90;5.43;;;6.90;99.90;;;;;;4893469;29;20071;-75
2023/12/12 12:48:12;;;;;;;10.25;5.88;;;6.90;99.90;;;;;;4893171;29;20044;-74
2023/12/12 12:50:42;;;;;;;10.68;6.05;;;6.90;99.90;;;;;;4893847;29;20040;-75
2023/12/12 12:53:08;;;;;;;9.63;5.35;;;6.80;99.90;;;;;;4893803;29;20088;-75